Metar z połowy godziny Komunikat METAR ze strony awiacja.imgw.pl Metar Mil EPIR METAR COR EPIR 230800Z 26018KT 9999 FEW020 08/01 Q1019 RMK 075 065 2/2=